首页
METAR-TAF:

METAR-TAF

机场 :

巴亞馬雷, 罗马尼亚

纬度: 47-40N, 经度: 023-35E, 海拔: 218米

当前天气观测

该预报发布于38分钟前的00:00 UTC
风速2节,风向,在东北东转东南之间变化
温度 20°C
湿度 73%
气压 1025 hPa
能见度10公里或以上

METAR: LRBM 260000Z AUTO 08002KT 050V110 9999 FEW095/// SCT240/// 20/15 Q1025

时间: 03:38 (00:38 UTC)

预报

该预报发布于1小时和38分钟前的23:00 UTC
预报有效从26日的 00点(UTC)到 26日的 09点(UTC)
风速4节,风向多变
能见度10公里或以上
1500米以下无云,无积雨云

TAF: LRBM 252300Z 2600/2609 VRB04KT CAVOK

超过4000个机场的气象观测和天气预报(METAR&TAF报告)。

可查询的气象台以黄色和红色小点在地图上表示。

将鼠标移到小点上方,可查看气象台名称。

然后点击查看天气观测和预报。

如需切换地图:点击带黑十字的绿色按钮放大地图;点击带横线的绿色按钮缩小地图;或者点击绿色箭头查看邻近地区的地图。


METAR-TAF: